sensor_id;sensor_type;location;lat;lon;timestamp;P1;durP1;ratioP1;P2;durP2;ratioP2
21589;SDS011;10957;50.968;6.828;2022-10-16T00:04:48;9.20;;;8.80;;
21589;SDS011;10957;50.968;6.828;2022-10-16T00:09:52;10.13;;;9.48;;
21589;SDS011;10957;50.968;6.828;2022-10-16T00:14:53;9.40;;;8.90;;
21589;SDS011;10957;50.968;6.828;2022-10-16T00:19:53;9.32;;;8.82;;
21589;SDS011;10957;50.968;6.828;2022-10-16T00:25:12;9.38;;;8.88;;
21589;SDS011;10957;50.968;6.828;2022-10-16T00:30:13;9.48;;;8.98;;
21589;SDS011;10957;50.968;6.828;2022-10-16T00:35:14;9.85;;;9.10;;
21589;SDS011;10957;50.968;6.828;2022-10-16T00:40:15;8.90;;;8.50;;
21589;SDS011;10957;50.968;6.828;2022-10-16T00:45:16;9.13;;;8.70;;
21589;SDS011;10957;50.968;6.828;2022-10-16T00:50:27;9.02;;;8.63;;
21589;SDS011;10957;50.968;6.828;2022-10-16T00:55:30;9.00;;;8.50;;
21589;SDS011;10957;50.968;6.828;2022-10-16T01:00:31;9.95;;;9.45;;
21589;SDS011;10957;50.968;6.828;2022-10-16T01:05:33;9.10;;;8.70;;
21589;SDS011;10957;50.968;6.828;2022-10-16T01:10:54;9.30;;;8.80;;
21589;SDS011;10957;50.968;6.828;2022-10-16T01:16:03;12.38;;;11.73;;
21589;SDS011;10957;50.968;6.828;2022-10-16T01:21:28;8.60;;;8.20;;
21589;SDS011;10957;50.968;6.828;2022-10-16T01:37:38;9.38;;;8.88;;
21589;SDS011;10957;50.968;6.828;2022-10-16T01:42:46;9.15;;;8.65;;
21589;SDS011;10957;50.968;6.828;2022-10-16T01:48:00;9.32;;;8.85;;
21589;SDS011;10957;50.968;6.828;2022-10-16T01:53:05;9.32;;;8.73;;
21589;SDS011;10957;50.968;6.828;2022-10-16T01:58:07;9.00;;;8.60;;
21589;SDS011;10957;50.968;6.828;2022-10-16T02:03:09;8.90;;;8.50;;
21589;SDS011;10957;50.968;6.828;2022-10-16T02:08:12;9.30;;;8.80;;
21589;SDS011;10957;50.968;6.828;2022-10-16T02:13:17;9.15;;;8.75;;
21589;SDS011;10957;50.968;6.828;2022-10-16T02:18:38;9.20;;;8.70;;
21589;SDS011;10957;50.968;6.828;2022-10-16T02:24:14;9.18;;;8.73;;
21589;SDS011;10957;50.968;6.828;2022-10-16T02:29:26;8.80;;;8.40;;
21589;SDS011;10957;50.968;6.828;2022-10-16T02:34:27;8.70;;;8.30;;
21589;SDS011;10957;50.968;6.828;2022-10-16T02:39:32;9.20;;;8.70;;
21589;SDS011;10957;50.968;6.828;2022-10-16T02:44:33;8.50;;;8.10;;
21589;SDS011;10957;50.968;6.828;2022-10-16T02:49:34;8.40;;;8.00;;
21589;SDS011;10957;50.968;6.828;2022-10-16T02:54:35;8.38;;;7.97;;
21589;SDS011;10957;50.968;6.828;2022-10-16T02:59:35;8.20;;;7.80;;
21589;SDS011;10957;50.968;6.828;2022-10-16T03:04:36;8.45;;;8.05;;
21589;SDS011;10957;50.968;6.828;2022-10-16T03:09:37;8.52;;;8.13;;
21589;SDS011;10957;50.968;6.828;2022-10-16T03:14:38;8.00;;;7.60;;
21589;SDS011;10957;50.968;6.828;2022-10-16T03:19:39;8.40;;;8.00;;
21589;SDS011;10957;50.968;6.828;2022-10-16T03:24:40;8.10;;;7.70;;
21589;SDS011;10957;50.968;6.828;2022-10-16T03:29:41;11.02;;;8.98;;
21589;SDS011;10957;50.968;6.828;2022-10-16T03:34:42;8.18;;;7.78;;
21589;SDS011;10957;50.968;6.828;2022-10-16T03:39:43;8.10;;;7.70;;
21589;SDS011;10957;50.968;6.828;2022-10-16T03:44:43;7.88;;;7.47;;
21589;SDS011;10957;50.968;6.828;2022-10-16T03:49:45;8.40;;;8.00;;
21589;SDS011;10957;50.968;6.828;2022-10-16T03:54:45;8.10;;;7.70;;
21589;SDS011;10957;50.968;6.828;2022-10-16T03:59:46;8.27;;;7.88;;
21589;SDS011;10957;50.968;6.828;2022-10-16T04:04:47;7.95;;;7.55;;
21589;SDS011;10957;50.968;6.828;2022-10-16T04:09:47;7.80;;;7.40;;
21589;SDS011;10957;50.968;6.828;2022-10-16T04:14:48;7.43;;;7.13;;
21589;SDS011;10957;50.968;6.828;2022-10-16T04:19:49;7.45;;;7.15;;
21589;SDS011;10957;50.968;6.828;2022-10-16T04:24:50;7.47;;;7.18;;
21589;SDS011;10957;50.968;6.828;2022-10-16T04:29:51;7.43;;;7.13;;
21589;SDS011;10957;50.968;6.828;2022-10-16T04:34:51;7.78;;;7.38;;
21589;SDS011;10957;50.968;6.828;2022-10-16T04:39:52;7.72;;;7.32;;
21589;SDS011;10957;50.968;6.828;2022-10-16T04:44:53;7.60;;;7.20;;
21589;SDS011;10957;50.968;6.828;2022-10-16T04:49:54;8.00;;;7.60;;
21589;SDS011;10957;50.968;6.828;2022-10-16T04:54:55;8.00;;;7.60;;
21589;SDS011;10957;50.968;6.828;2022-10-16T05:00:00;7.97;;;7.57;;
21589;SDS011;10957;50.968;6.828;2022-10-16T05:05:01;8.40;;;8.00;;
21589;SDS011;10957;50.968;6.828;2022-10-16T05:10:02;8.50;;;8.10;;
21589;SDS011;10957;50.968;6.828;2022-10-16T05:15:03;8.35;;;7.95;;
21589;SDS011;10957;50.968;6.828;2022-10-16T05:20:04;8.43;;;8.02;;
21589;SDS011;10957;50.968;6.828;2022-10-16T05:25:05;8.95;;;8.55;;
21589;SDS011;10957;50.968;6.828;2022-10-16T05:30:06;8.43;;;8.02;;
21589;SDS011;10957;50.968;6.828;2022-10-16T05:35:07;8.60;;;8.20;;
21589;SDS011;10957;50.968;6.828;2022-10-16T05:40:09;8.82;;;8.43;;
21589;SDS011;10957;50.968;6.828;2022-10-16T05:45:10;8.60;;;8.18;;
21589;SDS011;10957;50.968;6.828;2022-10-16T05:50:12;8.80;;;8.40;;
21589;SDS011;10957;50.968;6.828;2022-10-16T05:55:13;9.60;;;9.10;;
21589;SDS011;10957;50.968;6.828;2022-10-16T06:00:13;8.27;;;7.88;;
21589;SDS011;10957;50.968;6.828;2022-10-16T06:05:14;8.38;;;7.97;;
21589;SDS011;10957;50.968;6.828;2022-10-16T06:10:15;8.57;;;8.18;;
21589;SDS011;10957;50.968;6.828;2022-10-16T06:15:16;8.07;;;7.68;;
21589;SDS011;10957;50.968;6.828;2022-10-16T06:20:16;8.50;;;8.10;;
21589;SDS011;10957;50.968;6.828;2022-10-16T06:25:17;8.00;;;7.60;;
21589;SDS011;10957;50.968;6.828;2022-10-16T06:30:18;8.10;;;7.70;;
21589;SDS011;10957;50.968;6.828;2022-10-16T06:35:18;7.50;;;7.20;;
21589;SDS011;10957;50.968;6.828;2022-10-16T06:40:19;7.85;;;7.45;;
21589;SDS011;10957;50.968;6.828;2022-10-16T06:45:20;7.95;;;7.55;;
21589;SDS011;10957;50.968;6.828;2022-10-16T06:50:21;8.00;;;7.60;;
21589;SDS011;10957;50.968;6.828;2022-10-16T06:55:21;8.00;;;7.60;;
21589;SDS011;10957;50.968;6.828;2022-10-16T07:00:22;8.57;;;8.18;;
21589;SDS011;10957;50.968;6.828;2022-10-16T07:05:23;7.15;;;6.85;;
21589;SDS011;10957;50.968;6.828;2022-10-16T07:10:23;7.30;;;7.00;;
21589;SDS011;10957;50.968;6.828;2022-10-16T07:15:25;7.00;;;6.70;;
21589;SDS011;10957;50.968;6.828;2022-10-16T07:20:26;7.15;;;6.85;;
21589;SDS011;10957;50.968;6.828;2022-10-16T07:25:27;7.53;;;7.13;;
21589;SDS011;10957;50.968;6.828;2022-10-16T07:30:27;7.30;;;7.00;;
21589;SDS011;10957;50.968;6.828;2022-10-16T07:35:28;7.80;;;7.40;;
21589;SDS011;10957;50.968;6.828;2022-10-16T07:40:29;8.20;;;7.80;;
21589;SDS011;10957;50.968;6.828;2022-10-16T07:45:29;7.82;;;7.43;;
21589;SDS011;10957;50.968;6.828;2022-10-16T07:50:30;8.10;;;7.60;;
21589;SDS011;10957;50.968;6.828;2022-10-16T07:55:31;7.95;;;7.55;;
21589;SDS011;10957;50.968;6.828;2022-10-16T08:00:32;7.70;;;7.30;;
21589;SDS011;10957;50.968;6.828;2022-10-16T08:05:33;7.20;;;6.90;;
21589;SDS011;10957;50.968;6.828;2022-10-16T08:10:34;7.03;;;6.72;;
21589;SDS011;10957;50.968;6.828;2022-10-16T08:15:35;6.70;;;6.40;;
21589;SDS011;10957;50.968;6.828;2022-10-16T08:20:36;6.60;;;6.30;;
21589;SDS011;10957;50.968;6.828;2022-10-16T08:25:37;6.28;;;5.97;;
21589;SDS011;10957;50.968;6.828;2022-10-16T08:30:38;5.80;;;5.60;;
21589;SDS011;10957;50.968;6.828;2022-10-16T08:35:39;6.90;;;5.80;;
21589;SDS011;10957;50.968;6.828;2022-10-16T08:40:41;5.03;;;4.82;;
21589;SDS011;10957;50.968;6.828;2022-10-16T08:45:51;4.82;;;4.63;;
21589;SDS011;10957;50.968;6.828;2022-10-16T08:51:07;5.35;;;5.15;;
21589;SDS011;10957;50.968;6.828;2022-10-16T08:56:11;5.10;;;4.90;;
21589;SDS011;10957;50.968;6.828;2022-10-16T09:01:13;5.00;;;4.80;;
21589;SDS011;10957;50.968;6.828;2022-10-16T09:06:19;5.10;;;4.90;;
21589;SDS011;10957;50.968;6.828;2022-10-16T09:17:00;4.95;;;4.75;;
21589;SDS011;10957;50.968;6.828;2022-10-16T09:22:12;4.60;;;4.40;;
21589;SDS011;10957;50.968;6.828;2022-10-16T09:27:15;5.38;;;5.07;;
21589;SDS011;10957;50.968;6.828;2022-10-16T09:32:17;4.35;;;4.15;;
21589;SDS011;10957;50.968;6.828;2022-10-16T09:37:20;4.40;;;4.10;;
21589;SDS011;10957;50.968;6.828;2022-10-16T09:42:30;4.20;;;4.00;;
21589;SDS011;10957;50.968;6.828;2022-10-16T09:47:35;4.32;;;4.13;;
21589;SDS011;10957;50.968;6.828;2022-10-16T09:52:44;4.13;;;3.92;;
21589;SDS011;10957;50.968;6.828;2022-10-16T09:57:48;4.20;;;4.00;;
21589;SDS011;10957;50.968;6.828;2022-10-16T10:02:53;4.30;;;4.10;;
21589;SDS011;10957;50.968;6.828;2022-10-16T10:07:56;3.90;;;3.80;;
21589;SDS011;10957;50.968;6.828;2022-10-16T10:13:00;4.10;;;3.90;;
21589;SDS011;10957;50.968;6.828;2022-10-16T10:18:01;3.80;;;3.70;;
21589;SDS011;10957;50.968;6.828;2022-10-16T10:23:20;4.10;;;3.90;;
21589;SDS011;10957;50.968;6.828;2022-10-16T10:33:47;3.90;;;3.80;;
21589;SDS011;10957;50.968;6.828;2022-10-16T10:44:07;4.30;;;4.10;;
21589;SDS011;10957;50.968;6.828;2022-10-16T10:59:42;4.40;;;4.20;;
21589;SDS011;10957;50.968;6.828;2022-10-16T11:09:57;4.38;;;4.18;;
21589;SDS011;10957;50.968;6.828;2022-10-16T11:15:19;4.40;;;4.20;;
21589;SDS011;10957;50.968;6.828;2022-10-16T11:20:25;4.60;;;4.40;;
21589;SDS011;10957;50.968;6.828;2022-10-16T11:25:30;4.55;;;4.35;;
21589;SDS011;10957;50.968;6.828;2022-10-16T11:30:34;4.28;;;4.07;;
21589;SDS011;10957;50.968;6.828;2022-10-16T11:41:03;4.30;;;4.10;;
21589;SDS011;10957;50.968;6.828;2022-10-16T11:46:20;4.68;;;4.47;;
21589;SDS011;10957;50.968;6.828;2022-10-16T11:51:32;4.30;;;4.10;;
21589;SDS011;10957;50.968;6.828;2022-10-16T11:56:38;4.32;;;4.13;;
21589;SDS011;10957;50.968;6.828;2022-10-16T12:01:46;4.50;;;4.30;;
21589;SDS011;10957;50.968;6.828;2022-10-16T12:07:35;4.22;;;4.03;;
21589;SDS011;10957;50.968;6.828;2022-10-16T12:12:40;3.97;;;3.83;;
21589;SDS011;10957;50.968;6.828;2022-10-16T12:17:41;20.42;;;4.10;;
21589;SDS011;10957;50.968;6.828;2022-10-16T12:22:52;3.90;;;3.70;;
21589;SDS011;10957;50.968;6.828;2022-10-16T12:38:53;4.10;;;3.90;;
21589;SDS011;10957;50.968;6.828;2022-10-16T12:43:54;4.10;;;3.90;;
21589;SDS011;10957;50.968;6.828;2022-10-16T12:49:07;4.10;;;3.90;;
21589;SDS011;10957;50.968;6.828;2022-10-16T12:54:15;4.20;;;4.00;;
21589;SDS011;10957;50.968;6.828;2022-10-16T12:59:42;3.90;;;3.80;;
21589;SDS011;10957;50.968;6.828;2022-10-16T13:10:20;3.80;;;3.70;;
21589;SDS011;10957;50.968;6.828;2022-10-16T13:31:37;3.85;;;3.75;;
21589;SDS011;10957;50.968;6.828;2022-10-16T13:36:47;4.10;;;3.90;;
21589;SDS011;10957;50.968;6.828;2022-10-16T13:42:06;3.90;;;3.80;;
21589;SDS011;10957;50.968;6.828;2022-10-16T13:47:17;4.10;;;3.90;;
21589;SDS011;10957;50.968;6.828;2022-10-16T13:52:25;4.10;;;3.90;;
21589;SDS011;10957;50.968;6.828;2022-10-16T13:57:25;4.30;;;4.10;;
21589;SDS011;10957;50.968;6.828;2022-10-16T14:02:29;4.60;;;4.40;;
21589;SDS011;10957;50.968;6.828;2022-10-16T14:07:36;4.10;;;3.90;;
21589;SDS011;10957;50.968;6.828;2022-10-16T14:12:38;4.50;;;4.30;;
21589;SDS011;10957;50.968;6.828;2022-10-16T14:17:39;4.32;;;4.13;;
21589;SDS011;10957;50.968;6.828;2022-10-16T14:22:46;3.90;;;3.80;;
21589;SDS011;10957;50.968;6.828;2022-10-16T14:33:05;3.95;;;3.83;;
21589;SDS011;10957;50.968;6.828;2022-10-16T14:38:19;3.70;;;3.60;;
21589;SDS011;10957;50.968;6.828;2022-10-16T14:48:35;4.35;;;4.15;;
21589;SDS011;10957;50.968;6.828;2022-10-16T14:53:40;3.88;;;3.78;;
21589;SDS011;10957;50.968;6.828;2022-10-16T14:58:41;4.35;;;4.15;;
21589;SDS011;10957;50.968;6.828;2022-10-16T15:03:42;4.20;;;4.00;;
21589;SDS011;10957;50.968;6.828;2022-10-16T15:08:43;4.03;;;3.85;;
21589;SDS011;10957;50.968;6.828;2022-10-16T15:13:44;3.95;;;3.78;;
21589;SDS011;10957;50.968;6.828;2022-10-16T15:18:45;4.35;;;4.07;;
21589;SDS011;10957;50.968;6.828;2022-10-16T15:23:46;4.10;;;3.90;;
21589;SDS011;10957;50.968;6.828;2022-10-16T15:28:46;4.20;;;4.00;;
21589;SDS011;10957;50.968;6.828;2022-10-16T15:33:51;4.53;;;4.32;;
21589;SDS011;10957;50.968;6.828;2022-10-16T15:38:56;4.10;;;3.92;;
21589;SDS011;10957;50.968;6.828;2022-10-16T15:43:57;4.72;;;4.40;;
21589;SDS011;10957;50.968;6.828;2022-10-16T15:48:58;4.45;;;4.25;;
21589;SDS011;10957;50.968;6.828;2022-10-16T15:53:59;4.43;;;4.22;;
21589;SDS011;10957;50.968;6.828;2022-10-16T16:04:19;4.53;;;4.32;;
21589;SDS011;10957;50.968;6.828;2022-10-16T16:09:26;4.40;;;4.20;;
21589;SDS011;10957;50.968;6.828;2022-10-16T16:14:38;4.35;;;4.15;;
21589;SDS011;10957;50.968;6.828;2022-10-16T16:19:39;4.70;;;4.50;;
21589;SDS011;10957;50.968;6.828;2022-10-16T16:24:40;4.70;;;4.50;;
21589;SDS011;10957;50.968;6.828;2022-10-16T16:29:41;4.50;;;4.30;;
21589;SDS011;10957;50.968;6.828;2022-10-16T16:34:43;4.32;;;4.13;;
21589;SDS011;10957;50.968;6.828;2022-10-16T16:39:44;4.45;;;4.25;;
21589;SDS011;10957;50.968;6.828;2022-10-16T16:44:47;4.15;;;3.95;;
21589;SDS011;10957;50.968;6.828;2022-10-16T16:49:48;4.47;;;4.28;;
21589;SDS011;10957;50.968;6.828;2022-10-16T16:54:48;5.50;;;5.30;;
21589;SDS011;10957;50.968;6.828;2022-10-16T16:59:51;5.03;;;4.82;;
21589;SDS011;10957;50.968;6.828;2022-10-16T17:04:52;4.38;;;4.18;;
21589;SDS011;10957;50.968;6.828;2022-10-16T17:09:53;5.75;;;5.45;;
21589;SDS011;10957;50.968;6.828;2022-10-16T17:14:54;4.40;;;4.20;;
21589;SDS011;10957;50.968;6.828;2022-10-16T17:19:55;4.50;;;4.30;;
21589;SDS011;10957;50.968;6.828;2022-10-16T17:24:55;4.00;;;3.85;;
21589;SDS011;10957;50.968;6.828;2022-10-16T17:29:56;4.30;;;4.10;;
21589;SDS011;10957;50.968;6.828;2022-10-16T17:34:57;4.28;;;4.07;;
21589;SDS011;10957;50.968;6.828;2022-10-16T17:39:58;4.40;;;4.20;;
21589;SDS011;10957;50.968;6.828;2022-10-16T17:44:59;4.75;;;4.55;;
21589;SDS011;10957;50.968;6.828;2022-10-16T17:50:00;4.40;;;4.20;;
21589;SDS011;10957;50.968;6.828;2022-10-16T17:55:01;4.60;;;4.40;;
21589;SDS011;10957;50.968;6.828;2022-10-16T18:00:03;4.30;;;4.10;;
21589;SDS011;10957;50.968;6.828;2022-10-16T18:05:05;4.90;;;4.70;;
21589;SDS011;10957;50.968;6.828;2022-10-16T18:10:05;4.63;;;4.43;;
21589;SDS011;10957;50.968;6.828;2022-10-16T18:15:08;4.60;;;4.40;;
21589;SDS011;10957;50.968;6.828;2022-10-16T18:20:10;4.90;;;4.70;;
21589;SDS011;10957;50.968;6.828;2022-10-16T18:25:11;5.10;;;4.90;;
21589;SDS011;10957;50.968;6.828;2022-10-16T18:30:11;4.47;;;4.28;;
21589;SDS011;10957;50.968;6.828;2022-10-16T18:35:13;4.40;;;4.20;;
21589;SDS011;10957;50.968;6.828;2022-10-16T18:40:13;4.85;;;4.65;;
21589;SDS011;10957;50.968;6.828;2022-10-16T18:45:14;4.65;;;4.45;;
21589;SDS011;10957;50.968;6.828;2022-10-16T18:50:15;4.50;;;4.30;;
21589;SDS011;10957;50.968;6.828;2022-10-16T18:55:17;4.90;;;4.70;;
21589;SDS011;10957;50.968;6.828;2022-10-16T19:00:19;4.50;;;4.30;;
21589;SDS011;10957;50.968;6.828;2022-10-16T19:05:20;4.50;;;4.30;;
21589;SDS011;10957;50.968;6.828;2022-10-16T19:10:20;4.60;;;4.40;;
21589;SDS011;10957;50.968;6.828;2022-10-16T19:15:21;4.70;;;4.50;;
21589;SDS011;10957;50.968;6.828;2022-10-16T19:20:22;4.90;;;4.70;;
21589;SDS011;10957;50.968;6.828;2022-10-16T19:25:23;4.80;;;4.60;;
21589;SDS011;10957;50.968;6.828;2022-10-16T19:30:23;6.75;;;6.45;;
21589;SDS011;10957;50.968;6.828;2022-10-16T19:35:24;4.80;;;4.60;;
21589;SDS011;10957;50.968;6.828;2022-10-16T19:40:26;5.00;;;4.80;;
21589;SDS011;10957;50.968;6.828;2022-10-16T19:45:27;5.03;;;4.82;;
21589;SDS011;10957;50.968;6.828;2022-10-16T19:50:30;5.15;;;4.95;;
21589;SDS011;10957;50.968;6.828;2022-10-16T19:55:34;5.00;;;4.80;;
21589;SDS011;10957;50.968;6.828;2022-10-16T20:00:35;6.18;;;5.80;;
21589;SDS011;10957;50.968;6.828;2022-10-16T20:05:38;6.38;;;5.90;;
21589;SDS011;10957;50.968;6.828;2022-10-16T20:10:46;6.03;;;5.72;;
21589;SDS011;10957;50.968;6.828;2022-10-16T20:15:48;5.30;;;5.10;;
21589;SDS011;10957;50.968;6.828;2022-10-16T20:20:48;6.13;;;5.82;;
21589;SDS011;10957;50.968;6.828;2022-10-16T20:25:51;6.40;;;6.05;;
21589;SDS011;10957;50.968;6.828;2022-10-16T20:30:52;6.78;;;6.38;;
21589;SDS011;10957;50.968;6.828;2022-10-16T20:35:53;6.20;;;5.90;;
21589;SDS011;10957;50.968;6.828;2022-10-16T20:40:53;6.10;;;5.80;;
21589;SDS011;10957;50.968;6.828;2022-10-16T20:45:58;6.13;;;5.82;;
21589;SDS011;10957;50.968;6.828;2022-10-16T20:51:09;6.63;;;6.32;;
21589;SDS011;10957;50.968;6.828;2022-10-16T20:56:31;7.00;;;6.70;;
21589;SDS011;10957;50.968;6.828;2022-10-16T21:01:33;8.07;;;7.68;;
21589;SDS011;10957;50.968;6.828;2022-10-16T21:06:36;7.70;;;7.30;;
21589;SDS011;10957;50.968;6.828;2022-10-16T21:11:38;8.02;;;7.60;;
21589;SDS011;10957;50.968;6.828;2022-10-16T21:16:38;8.38;;;7.90;;
21589;SDS011;10957;50.968;6.828;2022-10-16T21:21:39;9.32;;;8.60;;
21589;SDS011;10957;50.968;6.828;2022-10-16T21:26:40;8.70;;;8.30;;
21589;SDS011;10957;50.968;6.828;2022-10-16T21:31:41;9.07;;;8.68;;
21589;SDS011;10957;50.968;6.828;2022-10-16T21:36:42;9.10;;;8.70;;
21589;SDS011;10957;50.968;6.828;2022-10-16T21:41:44;9.73;;;9.13;;
21589;SDS011;10957;50.968;6.828;2022-10-16T21:46:46;9.27;;;8.82;;
21589;SDS011;10957;50.968;6.828;2022-10-16T21:51:49;9.60;;;9.10;;
21589;SDS011;10957;50.968;6.828;2022-10-16T21:56:50;9.45;;;8.90;;
21589;SDS011;10957;50.968;6.828;2022-10-16T22:01:54;10.05;;;9.55;;
21589;SDS011;10957;50.968;6.828;2022-10-16T22:06:55;9.85;;;9.35;;
21589;SDS011;10957;50.968;6.828;2022-10-16T22:11:56;10.10;;;9.60;;
21589;SDS011;10957;50.968;6.828;2022-10-16T22:16:57;10.50;;;9.93;;
21589;SDS011;10957;50.968;6.828;2022-10-16T22:21:57;10.40;;;9.90;;
21589;SDS011;10957;50.968;6.828;2022-10-16T22:27:00;10.85;;;10.13;;
21589;SDS011;10957;50.968;6.828;2022-10-16T22:32:01;10.23;;;9.73;;
21589;SDS011;10957;50.968;6.828;2022-10-16T22:37:01;10.43;;;9.93;;
21589;SDS011;10957;50.968;6.828;2022-10-16T22:42:02;10.45;;;9.95;;
21589;SDS011;10957;50.968;6.828;2022-10-16T22:47:03;10.50;;;10.00;;
21589;SDS011;10957;50.968;6.828;2022-10-16T22:52:04;10.50;;;9.90;;
21589;SDS011;10957;50.968;6.828;2022-10-16T22:57:04;10.32;;;9.82;;
21589;SDS011;10957;50.968;6.828;2022-10-16T23:02:05;10.70;;;10.10;;
21589;SDS011;10957;50.968;6.828;2022-10-16T23:07:06;10.82;;;10.20;;
21589;SDS011;10957;50.968;6.828;2022-10-16T23:12:06;10.23;;;9.73;;
21589;SDS011;10957;50.968;6.828;2022-10-16T23:17:07;10.50;;;9.90;;
21589;SDS011;10957;50.968;6.828;2022-10-16T23:22:08;10.25;;;9.73;;
21589;SDS011;10957;50.968;6.828;2022-10-16T23:27:09;10.70;;;10.10;;
21589;SDS011;10957;50.968;6.828;2022-10-16T23:32:09;10.38;;;9.88;;
21589;SDS011;10957;50.968;6.828;2022-10-16T23:37:10;10.80;;;10.20;;
21589;SDS011;10957;50.968;6.828;2022-10-16T23:42:11;10.48;;;9.88;;
21589;SDS011;10957;50.968;6.828;2022-10-16T23:47:11;10.38;;;9.88;;
21589;SDS011;10957;50.968;6.828;2022-10-16T23:52:12;10.65;;;10.07;;
21589;SDS011;10957;50.968;6.828;2022-10-16T23:57:13;11.15;;;10.55;;
